Time;durP1;ratioP1;P1;durP2;ratioP2;P2;SDS_P1;SDS_P2;PMS_P1;PMS_P2;Temp;Humidity;BMP_temperature;BMP_pressure;BME280_temperature;BME280_humidity;BME280_pressure;Samples;Min_cycle;Max_cycle;Signal;HPM_P1;HPM_P2
2023/04/07 00:02:27;;;;;;;2.10;1.90;;;10.70;99.50;;;;;;4985093;28;20481;-74
2023/04/07 00:04:57;;;;;;;3.20;1.43;;;10.70;99.60;;;;;;4970969;28;20435;-75
2023/04/07 00:07:26;;;;;;;1.80;1.70;;;10.70;99.50;;;;;;4984861;28;20853;-72
2023/04/07 00:09:54;;;;;;;2.13;1.93;;;10.70;99.50;;;;;;4980770;28;20460;-73
2023/04/07 00:12:23;;;;;;;3.07;2.20;;;10.70;99.50;;;;;;4999579;28;20474;-74
2023/04/07 00:14:51;;;;;;;2.93;2.17;;;10.70;99.70;;;;;;4986349;28;20977;-74
2023/04/07 00:17:21;;;;;;;1.90;1.77;;;10.70;99.70;;;;;;4980936;28;20486;-75
2023/04/07 00:19:50;;;;;;;2.40;1.93;;;10.70;99.50;;;;;;4980111;28;20550;-74
2023/04/07 00:22:19;;;;;;;2.50;1.90;;;10.70;99.60;;;;;;4956977;28;20461;-74
2023/04/07 00:24:47;;;;;;;2.13;1.87;;;10.70;99.50;;;;;;4985952;28;20957;-73
2023/04/07 00:27:18;;;;;;;1.60;1.50;;;10.70;99.50;;;;;;4982640;28;20505;-74
2023/04/07 00:29:47;;;;;;;1.97;1.47;;;10.70;99.40;;;;;;4984179;28;20449;-73
2023/04/07 00:32:16;;;;;;;2.67;1.93;;;10.70;99.50;;;;;;4976754;28;20477;-73
2023/04/07 00:34:45;;;;;;;2.63;2.30;;;10.70;99.50;;;;;;4996752;28;20473;-73
2023/04/07 00:37:14;;;;;;;2.20;2.10;;;10.70;99.70;;;;;;4974668;28;20514;-73
2023/04/07 00:39:42;;;;;;;2.50;2.30;;;10.70;99.70;;;;;;4985653;28;20923;-73
2023/04/07 00:42:11;;;;;;;2.93;2.67;;;10.70;99.70;;;;;;5002502;28;20469;-72
2023/04/07 00:44:39;;;;;;;3.30;2.53;;;10.70;99.70;;;;;;4983350;28;20515;-74
2023/04/07 00:47:08;;;;;;;2.50;2.20;;;10.70;99.90;;;;;;4976102;28;20605;-74
2023/04/07 00:49:37;;;;;;;2.90;1.73;;;10.70;99.60;;;;;;4980244;28;20875;-74
2023/04/07 00:52:10;;;;;;;5.00;2.03;;;10.70;99.50;;;;;;4984308;28;20489;-73
2023/04/07 00:54:41;;;;;;;1.70;1.50;;;10.70;99.60;;;;;;4986527;28;20821;-74
2023/04/07 00:57:10;;;;;;;2.10;1.83;;;10.70;99.60;;;;;;5000170;28;20983;-73
2023/04/07 00:59:39;;;;;;;2.63;2.40;;;10.70;99.60;;;;;;4985010;28;20484;-73
2023/04/07 01:02:12;;;;;;;1.60;1.50;;;10.70;99.50;;;;;;4984775;28;20482;-74
2023/04/07 01:04:48;;;;;;;1.47;1.37;;;10.70;99.50;;;;;;4978964;28;20438;-74
2023/04/07 01:07:23;;;;;;;2.50;2.30;;;10.70;99.40;;;;;;4982060;28;20493;-73
2023/04/07 01:10:05;;;;;;;2.13;1.93;;;10.60;99.40;;;;;;4976794;28;20470;-74
2023/04/07 01:13:01;;;;;;;1.93;1.70;;;10.70;99.50;;;;;;4985552;28;20461;-73
2023/04/07 01:15:32;;;;;;;1.50;1.40;;;10.60;99.40;;;;;;4978825;28;20462;-72
2023/04/07 01:18:07;;;;;;;2.23;2.03;;;10.70;99.40;;;;;;4984842;28;20557;-73
2023/04/07 01:20:37;;;;;;;3.40;3.07;;;10.60;99.30;;;;;;4981710;28;20881;-72
2023/04/07 01:23:08;;;;;;;2.60;2.23;;;10.70;99.40;;;;;;4985007;28;20516;-74
2023/04/07 01:26:00;;;;;;;2.03;1.27;;;10.60;99.50;;;;;;4985126;28;20505;-73
2023/04/07 01:28:46;;;;;;;1.83;1.70;;;10.60;99.50;;;;;;4965265;28;20468;-74
2023/04/07 01:31:16;;;;;;;1.90;1.70;;;10.60;99.40;;;;;;4995643;28;20472;-73
2023/04/07 01:33:46;;;;;;;2.27;2.07;;;10.60;99.40;;;;;;4999454;28;20446;-74
2023/04/07 01:36:16;;;;;;;2.70;2.50;;;10.60;99.40;;;;;;4993946;28;20462;-74
2023/04/07 01:38:45;;;;;;;3.60;2.40;;;10.60;99.50;;;;;;4998655;28;20466;-73
2023/04/07 01:41:15;;;;;;;2.77;2.40;;;10.60;99.50;;;;;;4963098;28;20453;-76
2023/04/07 01:43:46;;;;;;;4.43;3.33;;;10.60;99.60;;;;;;4983822;28;20464;-74
2023/04/07 01:46:16;;;;;;;2.57;2.37;;;10.60;99.60;;;;;;4986308;28;20465;-73
2023/04/07 01:48:45;;;;;;;2.03;1.93;;;10.60;99.60;;;;;;4981970;28;20819;-75
2023/04/07 01:51:17;;;;;;;3.60;2.50;;;10.60;99.60;;;;;;4988749;28;20469;-74
2023/04/07 01:53:47;;;;;;;4.23;3.80;;;10.60;99.60;;;;;;4981208;28;20502;-74
2023/04/07 01:56:16;;;;;;;3.77;2.70;;;10.60;99.80;;;;;;4977431;28;20476;-74
2023/04/07 01:58:49;;;;;;;2.80;2.60;;;10.60;99.70;;;;;;4998959;28;20479;-75
2023/04/07 02:01:22;;;;;;;4.70;3.00;;;10.60;99.60;;;;;;4980325;28;20878;-74
2023/04/07 02:03:55;;;;;;;4.13;3.20;;;10.60;99.60;;;;;;4994860;28;20444;-74
2023/04/07 02:06:32;;;;;;;6.10;3.80;;;10.60;99.70;;;;;;4977671;28;20473;-74
2023/04/07 02:09:07;;;;;;;3.83;2.60;;;10.60;99.60;;;;;;4986779;28;20488;-73
2023/04/07 02:11:37;;;;;;;3.50;3.10;;;10.60;99.90;;;;;;4983693;28;21025;-72
2023/04/07 02:14:08;;;;;;;3.63;2.90;;;10.60;99.80;;;;;;4990589;28;20465;-75
2023/04/07 02:16:54;;;;;;;3.53;2.80;;;10.60;99.70;;;;;;5005837;28;20469;-73
2023/04/07 02:19:23;;;;;;;4.10;2.90;;;10.60;99.60;;;;;;4990752;28;20470;-74
2023/04/07 02:21:52;;;;;;;2.80;2.50;;;10.60;99.70;;;;;;4990100;28;20473;-74
2023/04/07 02:24:21;;;;;;;4.23;3.57;;;10.60;99.60;;;;;;4991446;28;20497;-74
2023/04/07 02:26:50;;;;;;;3.17;2.60;;;10.60;99.60;;;;;;4981390;28;20843;-74
2023/04/07 02:29:19;;;;;;;3.33;2.83;;;10.60;99.70;;;;;;4973535;28;20553;-74
2023/04/07 02:31:47;;;;;;;3.73;3.10;;;10.60;99.70;;;;;;4989904;28;20536;-74
2023/04/07 02:34:17;;;;;;;3.00;2.70;;;10.60;99.60;;;;;;5004590;28;20448;-74
2023/04/07 02:36:46;;;;;;;2.30;1.67;;;10.60;99.60;;;;;;4991991;28;20469;-74
2023/04/07 02:39:14;;;;;;;3.83;3.20;;;10.60;99.60;;;;;;4980743;28;20496;-74
2023/04/07 02:41:43;;;;;;;3.70;3.30;;;10.60;99.70;;;;;;4988315;28;20531;-74
2023/04/07 02:44:11;;;;;;;4.33;3.63;;;10.60;99.80;;;;;;4990260;28;20466;-73
2023/04/07 02:46:40;;;;;;;3.97;3.43;;;10.60;99.70;;;;;;4989681;28;20536;-75
2023/04/07 02:49:08;;;;;;;2.67;2.47;;;10.60;99.70;;;;;;4984538;28;20474;-72
2023/04/07 02:51:40;;;;;;;3.67;3.37;;;10.60;99.80;;;;;;4978656;28;20490;-74
2023/04/07 02:54:08;;;;;;;2.77;2.53;;;10.60;99.80;;;;;;4978887;28;20455;-74
2023/04/07 02:56:37;;;;;;;3.90;3.40;;;10.60;99.80;;;;;;4987667;28;20497;-74
2023/04/07 02:59:06;;;;;;;4.27;3.40;;;10.60;99.80;;;;;;4974573;28;20481;-74
2023/04/07 03:01:39;;;;;;;4.10;3.47;;;10.60;99.90;;;;;;4995709;28;20476;-74
2023/04/07 03:04:09;;;;;;;4.53;3.60;;;10.60;99.90;;;;;;4983081;28;20597;-73
2023/04/07 03:06:39;;;;;;;4.23;3.37;;;10.60;99.80;;;;;;4983081;28;20815;-73
2023/04/07 03:09:12;;;;;;;3.23;2.93;;;10.60;99.80;;;;;;4986545;28;20891;-73
2023/04/07 03:11:41;;;;;;;4.20;3.53;;;10.60;99.80;;;;;;4957969;28;22032;-74
2023/04/07 03:14:10;;;;;;;4.27;3.87;;;10.60;99.80;;;;;;4985447;28;20435;-74
2023/04/07 03:16:45;;;;;;;4.70;4.00;;;10.60;99.90;;;;;;4985356;28;22136;-73
2023/04/07 03:19:15;;;;;;;3.47;2.97;;;10.60;99.90;;;;;;4976093;28;20462;-74
2023/04/07 03:21:48;;;;;;;5.03;3.60;;;10.50;99.80;;;;;;4981978;28;20474;-74
2023/04/07 03:24:17;;;;;;;3.70;2.70;;;10.60;99.90;;;;;;4981876;28;20423;-74
2023/04/07 03:26:47;;;;;;;5.30;3.90;;;10.60;99.90;;;;;;4986852;28;20491;-74
2023/04/07 03:29:27;;;;;;;3.53;3.20;;;10.60;99.80;;;;;;4994233;28;20467;-74
2023/04/07 03:31:55;;;;;;;4.67;3.27;;;10.50;99.80;;;;;;4985886;28;20878;-73
2023/04/07 03:34:25;;;;;;;3.50;3.00;;;10.50;99.80;;;;;;4982058;28;20458;-73
2023/04/07 03:36:55;;;;;;;4.57;2.87;;;10.50;99.80;;;;;;4986342;28;20494;-75
2023/04/07 03:39:23;;;;;;;4.17;3.57;;;10.50;99.70;;;;;;4980854;28;20466;-74
2023/04/07 03:41:58;;;;;;;6.53;4.13;;;10.50;99.80;;;;;;4977076;28;20509;-73
2023/04/07 03:44:29;;;;;;;4.73;4.33;;;10.50;99.80;;;;;;4983175;28;20436;-73
2023/04/07 03:46:57;;;;;;;4.17;3.40;;;10.50;99.90;;;;;;4987506;28;20847;-73
2023/04/07 03:49:27;;;;;;;6.30;3.90;;;10.50;99.90;;;;;;4986850;28;20468;-74
2023/04/07 03:52:00;;;;;;;3.80;3.23;;;10.50;99.90;;;;;;4985912;28;20469;-73
2023/04/07 03:54:28;;;;;;;3.50;3.20;;;10.50;99.80;;;;;;4986282;28;20449;-72
2023/04/07 03:56:57;;;;;;;5.07;3.53;;;10.50;99.90;;;;;;4983280;28;20559;-74
2023/04/07 03:59:25;;;;;;;3.77;3.17;;;10.50;99.80;;;;;;4980301;28;20442;-74
2023/04/07 04:02:02;;;;;;;4.93;2.70;;;10.50;99.80;;;;;;4999258;28;20470;-74
2023/04/07 04:04:31;;;;;;;6.00;3.97;;;10.50;99.80;;;;;;4975645;28;20476;-75
2023/04/07 04:07:02;;;;;;;6.73;3.87;;;10.50;99.90;;;;;;4985495;28;20490;-74
2023/04/07 04:09:56;;;;;;;3.80;3.33;;;10.50;99.90;;;;;;4983870;28;20486;-75
2023/04/07 04:12:25;;;;;;;3.70;2.93;;;10.50;99.90;;;;;;4977902;28;20489;-73
2023/04/07 04:15:06;;;;;;;5.63;3.93;;;10.50;99.90;;;;;;4985111;28;20870;-74
2023/04/07 04:17:35;;;;;;;6.20;5.43;;;10.50;99.90;;;;;;4980309;28;20486;-74
2023/04/07 04:20:06;;;;;;;6.77;3.80;;;10.50;99.90;;;;;;4986052;28;20469;-74
2023/04/07 04:22:44;;;;;;;4.07;3.67;;;10.50;99.90;;;;;;4985850;28;20461;-73
2023/04/07 04:25:13;;;;;;;4.43;3.83;;;10.50;99.90;;;;;;4985469;28;20450;-73
2023/04/07 04:27:47;;;;;;;4.33;3.80;;;10.50;99.90;;;;;;4987204;28;20469;-75
2023/04/07 04:30:19;;;;;;;4.07;3.67;;;10.50;99.90;;;;;;4981036;28;20523;-73
2023/04/07 04:32:55;;;;;;;8.20;4.77;;;10.50;99.90;;;;;;4979406;28;20450;-74
2023/04/07 04:35:32;;;;;;;5.30;4.40;;;10.50;99.90;;;;;;4980257;28;21028;-73
2023/04/07 04:38:08;;;;;;;6.63;3.80;;;10.50;99.90;;;;;;4984406;28;20429;-73
2023/04/07 04:40:40;;;;;;;7.27;5.30;;;10.50;99.90;;;;;;4965053;28;20572;-74
2023/04/07 04:43:09;;;;;;;9.37;5.83;;;10.50;99.90;;;;;;4983291;28;20512;-74
2023/04/07 04:45:40;;;;;;;4.77;4.10;;;10.50;99.90;;;;;;4982735;28;20972;-73
2023/04/07 04:48:11;;;;;;;8.60;5.70;;;10.50;99.90;;;;;;4985613;28;20450;-73
2023/04/07 04:50:41;;;;;;;4.60;4.10;;;10.50;99.90;;;;;;4986371;28;20473;-73
2023/04/07 04:53:14;;;;;;;6.10;4.30;;;10.50;99.90;;;;;;4986114;28;20478;-73
2023/04/07 04:55:52;;;;;;;5.23;3.57;;;10.50;99.90;;;;;;4976824;28;20453;-72
2023/04/07 04:58:36;;;;;;;4.60;4.13;;;10.50;99.90;;;;;;4996944;28;20446;-73
2023/04/07 05:01:05;;;;;;;5.47;4.10;;;10.50;99.90;;;;;;4977653;28;20508;-73
2023/04/07 05:03:41;;;;;;;6.93;4.90;;;10.50;99.90;;;;;;4985133;28;20957;-74
2023/04/07 05:06:17;;;;;;;4.83;4.07;;;10.50;99.90;;;;;;4977563;28;20469;-72
2023/04/07 05:08:50;;;;;;;6.33;4.80;;;10.50;99.90;;;;;;4986271;28;20451;-73
2023/04/07 05:11:23;;;;;;;6.40;4.40;;;10.50;99.90;;;;;;4979860;28;20480;-72
2023/04/07 05:13:55;;;;;;;6.00;3.13;;;10.50;99.90;;;;;;4986319;28;20967;-71
2023/04/07 05:16:24;;;;;;;5.23;3.97;;;10.50;99.90;;;;;;4976247;28;20863;-72
2023/04/07 05:18:53;;;;;;;5.70;4.17;;;10.50;99.90;;;;;;4985265;28;20471;-74
2023/04/07 05:21:24;;;;;;;4.40;3.87;;;10.50;99.90;;;;;;4985401;28;20858;-73
2023/04/07 05:23:55;;;;;;;5.47;4.50;;;10.40;99.80;;;;;;4989145;28;20480;-73
2023/04/07 05:26:24;;;;;;;4.70;4.07;;;10.50;99.90;;;;;;4983516;28;20500;-73
2023/04/07 05:28:54;;;;;;;4.53;4.00;;;10.40;99.80;;;;;;4992970;28;21065;-73
2023/04/07 05:31:25;;;;;;;4.43;3.63;;;10.50;99.90;;;;;;4990848;28;20992;-73
2023/04/07 05:33:57;;;;;;;7.53;4.87;;;10.50;99.90;;;;;;4999116;28;20440;-74
2023/04/07 05:36:28;;;;;;;5.07;4.20;;;10.40;99.80;;;;;;4989082;28;20475;-72
2023/04/07 05:38:59;;;;;;;4.40;2.97;;;10.50;99.90;;;;;;4990461;28;20827;-73
2023/04/07 05:41:28;;;;;;;6.00;4.17;;;10.50;99.80;;;;;;4986668;28;20480;-74
2023/04/07 05:43:57;;;;;;;4.83;4.10;;;10.40;99.80;;;;;;4988134;28;20942;-73
2023/04/07 05:46:31;;;;;;;7.57;5.37;;;10.40;99.80;;;;;;5002382;28;20472;-71
2023/04/07 05:49:00;;;;;;;5.57;4.87;;;10.50;99.90;;;;;;4996189;28;20481;-72
2023/04/07 05:51:50;;;;;;;5.30;4.13;;;10.40;99.80;;;;;;4986592;28;20807;-73
2023/04/07 05:54:19;;;;;;;4.30;3.87;;;10.40;99.90;;;;;;4982095;28;20449;-73
2023/04/07 05:56:52;;;;;;;5.73;4.20;;;10.40;99.80;;;;;;4979464;28;21000;-74
2023/04/07 05:59:22;;;;;;;3.70;3.40;;;10.50;99.70;;;;;;4985119;28;20462;-73
2023/04/07 06:01:52;;;;;;;4.30;3.43;;;10.40;99.70;;;;;;4988504;28;20474;-73
2023/04/07 06:04:21;;;;;;;4.90;4.20;;;10.40;99.70;;;;;;4985759;28;20484;-73
2023/04/07 06:06:54;;;;;;;4.47;4.07;;;10.50;99.80;;;;;;4986631;28;20551;-73
2023/04/07 06:09:24;;;;;;;4.13;3.17;;;10.40;99.70;;;;;;4984514;28;20845;-74
2023/04/07 06:11:52;;;;;;;5.60;3.57;;;10.40;99.80;;;;;;4985933;28;20652;-73
2023/04/07 06:14:21;;;;;;;4.67;4.20;;;10.40;99.80;;;;;;4980779;28;20553;-72
2023/04/07 06:16:50;;;;;;;4.53;4.07;;;10.40;99.80;;;;;;4984108;28;20486;-73
2023/04/07 06:19:18;;;;;;;4.43;3.80;;;10.40;99.90;;;;;;4985362;28;20457;-74
2023/04/07 06:21:46;;;;;;;4.27;3.87;;;10.40;99.80;;;;;;4986916;28;20496;-74
2023/04/07 06:24:15;;;;;;;4.10;3.50;;;10.40;99.80;;;;;;4996521;28;20434;-73
2023/04/07 06:26:45;;;;;;;5.33;4.13;;;10.40;99.80;;;;;;4986968;28;20953;-73
2023/04/07 06:29:13;;;;;;;5.97;4.67;;;10.40;99.90;;;;;;4984538;28;20565;-73
2023/04/07 06:31:43;;;;;;;6.80;4.37;;;10.40;99.90;;;;;;5003759;28;20540;-73
2023/04/07 06:34:12;;;;;;;5.67;3.67;;;10.40;99.80;;;;;;4984022;28;20531;-74
2023/04/07 06:36:40;;;;;;;6.93;4.83;;;10.40;99.90;;;;;;4986726;28;20485;-73
2023/04/07 06:39:09;;;;;;;4.40;3.50;;;10.40;99.90;;;;;;4987851;28;20463;-72
2023/04/07 06:41:37;;;;;;;4.57;3.70;;;10.40;99.80;;;;;;4986321;28;20474;-73
2023/04/07 06:44:07;;;;;;;5.00;3.80;;;10.40;99.70;;;;;;4983809;28;20449;-73
2023/04/07 06:46:36;;;;;;;6.70;3.70;;;10.40;99.80;;;;;;4993743;28;20560;-74
2023/04/07 06:49:05;;;;;;;4.10;3.70;;;10.40;99.80;;;;;;4988022;28;20446;-74
2023/04/07 06:51:33;;;;;;;8.70;4.03;;;10.40;99.70;;;;;;4987603;28;20473;-73
2023/04/07 06:54:03;;;;;;;3.70;3.30;;;10.40;99.80;;;;;;4971910;28;20430;-73
2023/04/07 06:56:31;;;;;;;4.27;3.73;;;10.40;99.80;;;;;;4976541;28;20492;-73
2023/04/07 06:59:00;;;;;;;3.60;3.30;;;10.40;99.90;;;;;;4978732;28;20471;-72
2023/04/07 07:01:30;;;;;;;4.10;3.40;;;10.40;99.90;;;;;;4979765;28;20466;-73
2023/04/07 07:04:00;;;;;;;5.20;4.60;;;10.40;99.80;;;;;;4986033;28;20445;-74
2023/04/07 07:06:30;;;;;;;5.17;4.53;;;10.40;99.90;;;;;;4982705;28;20502;-73
2023/04/07 07:08:58;;;;;;;4.13;2.90;;;10.40;99.80;;;;;;4989602;28;20481;-72
2023/04/07 07:11:27;;;;;;;3.60;3.30;;;10.40;99.90;;;;;;4979980;28;20540;-74
2023/04/07 07:13:55;;;;;;;3.80;3.27;;;10.40;99.80;;;;;;4987329;28;20493;-74
2023/04/07 07:16:23;;;;;;;6.07;4.30;;;10.40;99.80;;;;;;4977937;28;20463;-72
2023/04/07 07:18:53;;;;;;;3.60;2.70;;;10.40;99.90;;;;;;4980523;28;20458;-74
2023/04/07 07:21:22;;;;;;;3.87;3.40;;;10.40;99.90;;;;;;4986631;28;20458;-72
2023/04/07 07:23:50;;;;;;;4.03;3.40;;;10.40;99.90;;;;;;4998285;28;20797;-73
2023/04/07 07:26:18;;;;;;;3.57;3.27;;;10.40;99.90;;;;;;5000594;28;20559;-74
2023/04/07 07:28:47;;;;;;;5.47;3.73;;;10.40;99.90;;;;;;4985329;28;20468;-74
2023/04/07 07:31:15;;;;;;;2.97;2.70;;;10.40;99.90;;;;;;4985463;28;20841;-73
2023/04/07 07:33:45;;;;;;;4.80;3.63;;;10.40;99.90;;;;;;4984864;28;20457;-72
2023/04/07 07:36:15;;;;;;;4.47;3.20;;;10.40;99.90;;;;;;4979019;28;20810;-73
2023/04/07 07:38:43;;;;;;;3.10;2.80;;;10.40;99.90;;;;;;4986194;28;20484;-73
2023/04/07 07:41:11;;;;;;;3.70;3.30;;;10.40;99.90;;;;;;4978730;28;20485;-73
2023/04/07 07:43:40;;;;;;;3.70;3.17;;;10.40;99.90;;;;;;5001072;28;21097;-72
2023/04/07 07:46:08;;;;;;;4.00;3.60;;;10.40;99.90;;;;;;4987445;28;20440;-73
2023/04/07 07:48:36;;;;;;;3.70;3.23;;;10.40;99.90;;;;;;4984990;28;20453;-73
2023/04/07 07:51:05;;;;;;;3.70;2.80;;;10.40;99.90;;;;;;4977580;28;20540;-73
2023/04/07 07:53:35;;;;;;;5.83;3.30;;;10.40;99.90;;;;;;4982644;28;20457;-73
2023/04/07 07:56:03;;;;;;;3.50;3.20;;;10.40;99.90;;;;;;4983209;28;20449;-73
2023/04/07 07:58:32;;;;;;;3.50;3.10;;;10.40;99.90;;;;;;4982449;28;20453;-73
2023/04/07 08:01:01;;;;;;;2.73;2.50;;;10.40;99.90;;;;;;4980284;28;20447;-72
2023/04/07 08:03:30;;;;;;;3.13;2.47;;;10.40;99.90;;;;;;4982412;28;20530;-73
2023/04/07 08:05:59;;;;;;;2.90;2.60;;;10.40;99.90;;;;;;4986597;28;21004;-74
2023/04/07 08:08:28;;;;;;;4.43;3.03;;;10.40;99.90;;;;;;4986779;28;20440;-73
2023/04/07 08:10:58;;;;;;;3.60;3.03;;;10.40;99.90;;;;;;4985227;28;20533;-73
2023/04/07 08:13:27;;;;;;;2.80;2.20;;;10.40;99.90;;;;;;4977760;28;21002;-65
2023/04/07 08:15:55;;;;;;;4.10;2.77;;;10.40;99.90;;;;;;4984815;28;20947;-65
2023/04/07 08:18:24;;;;;;;3.80;3.30;;;10.40;99.90;;;;;;4994572;28;20482;-73
2023/04/07 08:20:52;;;;;;;3.97;3.10;;;10.40;99.90;;;;;;4984024;28;20537;-74
2023/04/07 08:23:21;;;;;;;7.40;6.60;;;10.40;99.90;;;;;;4983624;28;20472;-73
2023/04/07 08:25:50;;;;;;;13.70;7.50;;;10.40;99.90;;;;;;4985632;28;20456;-75
2023/04/07 08:28:21;;;;;;;7.50;6.03;;;10.30;99.90;;;;;;4985320;28;20822;-74
2023/04/07 08:30:50;;;;;;;8.30;5.80;;;10.30;99.90;;;;;;4981541;28;20554;-74
2023/04/07 08:33:18;;;;;;;6.37;4.70;;;10.30;99.90;;;;;;4982841;28;20457;-73
2023/04/07 08:35:47;;;;;;;5.90;4.03;;;10.30;99.90;;;;;;4981921;28;20944;-72
2023/04/07 08:38:16;;;;;;;5.30;4.67;;;10.30;99.90;;;;;;4983652;28;20446;-73
2023/04/07 08:40:46;;;;;;;8.20;5.10;;;10.30;99.90;;;;;;4965388;28;21060;-74
2023/04/07 08:43:17;;;;;;;7.37;4.90;;;10.30;99.90;;;;;;4955898;28;21036;-73
2023/04/07 08:45:47;;;;;;;6.80;4.87;;;10.30;99.90;;;;;;4977292;28;21044;-74
2023/04/07 08:48:18;;;;;;;5.30;4.27;;;10.30;99.90;;;;;;4996870;28;20480;-72
2023/04/07 08:50:51;;;;;;;6.60;4.60;;;10.40;99.90;;;;;;4970956;28;21031;-71
2023/04/07 08:53:24;;;;;;;10.77;4.20;;;10.40;99.90;;;;;;4978881;28;20524;-65
2023/04/07 08:55:54;;;;;;;10.70;4.37;;;10.40;99.90;;;;;;5005930;28;20487;-66
2023/04/07 08:58:23;;;;;;;11.00;5.37;;;10.40;99.90;;;;;;5004318;28;20529;-65
2023/04/07 09:00:53;;;;;;;11.53;4.90;;;10.40;99.90;;;;;;4962161;28;20531;-65
2023/04/07 09:03:24;;;;;;;10.13;4.80;;;10.40;99.90;;;;;;4988917;28;20555;-65
2023/04/07 09:05:55;;;;;;;7.67;4.03;;;10.40;99.90;;;;;;4984242;28;20468;-66
2023/04/07 09:08:23;;;;;;;5.80;4.17;;;10.40;99.90;;;;;;4986230;28;20450;-66
2023/04/07 09:10:52;;;;;;;8.83;3.40;;;10.40;99.90;;;;;;4982749;28;20496;-65
2023/04/07 09:13:21;;;;;;;14.50;4.70;;;10.40;99.90;;;;;;4980735;28;20438;-66
2023/04/07 09:15:49;;;;;;;7.83;5.10;;;10.40;99.90;;;;;;4987482;28;20548;-66
2023/04/07 09:18:19;;;;;;;14.80;4.70;;;10.40;99.90;;;;;;4977833;28;20706;-73
2023/04/07 09:20:58;;;;;;;10.30;3.97;;;10.40;99.90;;;;;;4971681;28;20557;-73
2023/04/07 09:23:32;;;;;;;11.50;4.70;;;10.40;99.90;;;;;;4972986;28;20512;-73
2023/04/07 09:26:18;;;;;;;17.77;4.87;;;10.40;99.90;;;;;;4983285;28;20450;-74
2023/04/07 09:28:49;;;;;;;8.90;3.90;;;10.40;99.90;;;;;;4987770;28;20437;-72
2023/04/07 09:31:18;;;;;;;15.13;6.30;;;10.40;99.90;;;;;;4982547;28;20474;-73
2023/04/07 09:33:48;;;;;;;8.53;3.80;;;10.40;99.90;;;;;;4985536;28;20449;-74
2023/04/07 09:36:17;;;;;;;7.33;4.40;;;10.40;99.90;;;;;;4967920;28;20493;-73
2023/04/07 09:38:46;;;;;;;13.03;4.67;;;10.40;99.90;;;;;;4983003;28;20847;-74
2023/04/07 09:41:16;;;;;;;10.53;4.33;;;10.40;99.90;;;;;;4985101;28;20476;-74
2023/04/07 09:43:47;;;;;;;10.53;4.50;;;10.40;99.90;;;;;;4976729;28;21065;-66
2023/04/07 09:46:18;;;;;;;9.10;4.33;;;10.40;99.90;;;;;;5005378;28;20477;-65
2023/04/07 09:48:48;;;;;;;9.07;4.00;;;10.40;99.90;;;;;;4989065;28;20472;-64
2023/04/07 09:51:17;;;;;;;9.53;4.03;;;10.40;99.90;;;;;;5000317;28;20882;-65
2023/04/07 09:53:48;;;;;;;9.67;4.30;;;10.40;99.90;;;;;;4987032;28;20446;-65
2023/04/07 09:56:18;;;;;;;8.13;5.30;;;10.40;99.90;;;;;;4977139;28;20465;-68
2023/04/07 09:58:47;;;;;;;14.97;6.00;;;10.40;99.90;;;;;;4988053;28;21194;-66
2023/04/07 10:01:16;;;;;;;12.10;6.40;;;10.40;99.90;;;;;;4978159;28;20684;-66
2023/04/07 10:03:49;;;;;;;11.83;5.50;;;10.40;99.90;;;;;;4988087;28;20464;-64
2023/04/07 10:06:20;;;;;;;8.50;5.47;;;10.40;99.90;;;;;;4977611;28;21000;-65
2023/04/07 10:08:49;;;;;;;13.80;5.80;;;10.40;99.90;;;;;;4983153;28;20484;-65
2023/04/07 10:11:18;;;;;;;9.83;4.63;;;10.40;99.90;;;;;;4983049;28;20540;-65
2023/04/07 10:13:46;;;;;;;6.97;5.00;;;10.40;99.90;;;;;;4983302;28;20481;-65
2023/04/07 10:16:15;;;;;;;8.77;5.17;;;10.40;99.90;;;;;;4985609;28;20487;-65
2023/04/07 10:18:45;;;;;;;7.53;5.00;;;10.40;99.90;;;;;;4968139;28;20459;-66
2023/04/07 10:21:16;;;;;;;7.60;4.97;;;10.40;99.90;;;;;;4981338;28;20517;-65
2023/04/07 10:23:54;;;;;;;11.93;5.53;;;10.30;99.90;;;;;;4982584;28;20461;-67
2023/04/07 10:26:28;;;;;;;7.83;3.90;;;10.30;99.90;;;;;;4986589;28;20477;-67
2023/04/07 10:29:02;;;;;;;8.13;5.00;;;10.30;99.90;;;;;;4987313;28;20862;-66
2023/04/07 10:31:31;;;;;;;6.87;4.57;;;10.40;99.90;;;;;;5003393;28;20469;-66
2023/04/07 10:34:00;;;;;;;10.83;5.53;;;10.30;99.90;;;;;;4983227;28;20440;-65
2023/04/07 10:36:30;;;;;;;9.23;4.90;;;10.40;99.90;;;;;;4980862;28;21147;-66
2023/04/07 10:39:22;;;;;;;7.40;3.90;;;10.40;99.90;;;;;;4988342;28;20569;-67
2023/04/07 10:41:52;;;;;;;7.10;4.80;;;10.40;99.90;;;;;;4988528;28;20531;-65
2023/04/07 10:44:47;;;;;;;11.63;4.27;;;10.40;99.90;;;;;;4984351;28;20477;-66
2023/04/07 10:47:15;;;;;;;11.17;5.20;;;10.40;99.90;;;;;;4983704;28;20499;-64
2023/04/07 10:50:16;;;;;;;4.97;4.03;;;10.40;99.90;;;;;;4980597;28;20477;-66
2023/04/07 10:52:47;;;;;;;8.13;4.00;;;10.40;99.90;;;;;;4984382;28;20465;-65
2023/04/07 10:55:36;;;;;;;9.30;4.10;;;10.40;99.90;;;;;;4995917;28;20495;-65
2023/04/07 10:58:22;;;;;;;11.70;4.40;;;10.40;99.90;;;;;;4985179;28;20445;-65
2023/04/07 11:01:24;;;;;;;6.77;4.90;;;10.40;99.90;;;;;;5000925;28;20586;-66
2023/04/07 11:03:58;;;;;;;7.03;4.53;;;10.40;99.90;;;;;;4907458;29;20475;-65
2023/04/07 11:06:27;;;;;;;5.37;4.10;;;10.40;99.90;;;;;;4922046;29;21142;-65
2023/04/07 11:08:57;;;;;;;12.20;4.03;;;10.40;99.90;;;;;;4947577;28;20461;-64
2023/04/07 11:11:42;;;;;;;7.00;3.80;;;10.40;99.90;;;;;;4976834;28;21074;-65
2023/04/07 11:14:12;;;;;;;9.37;5.03;;;10.40;99.90;;;;;;4984753;28;20449;-65
2023/04/07 11:16:42;;;;;;;8.30;3.83;;;10.40;99.90;;;;;;4982084;28;20491;-66
2023/04/07 11:19:14;;;;;;;12.47;5.00;;;10.40;99.90;;;;;;4986044;28;20536;-66
2023/04/07 11:21:43;;;;;;;9.50;4.50;;;10.40;99.90;;;;;;4985315;28;20487;-73
2023/04/07 11:24:31;;;;;;;12.33;4.07;;;10.40;99.90;;;;;;4985779;28;21297;-74
2023/04/07 11:27:01;;;;;;;6.90;3.77;;;10.40;99.90;;;;;;4980290;28;20477;-73
2023/04/07 11:29:29;;;;;;;8.10;4.03;;;10.40;99.90;;;;;;4998087;28;20468;-73
2023/04/07 11:31:59;;;;;;;4.07;3.30;;;10.40;99.90;;;;;;4964847;28;20498;-72
2023/04/07 11:34:30;;;;;;;9.90;4.43;;;10.40;99.90;;;;;;4979702;28;20446;-73
2023/04/07 11:37:29;;;;;;;8.17;4.57;;;10.40;99.90;;;;;;4982548;28;20497;-72
2023/04/07 11:40:15;;;;;;;9.17;4.40;;;10.40;99.90;;;;;;4980727;28;20474;-72
2023/04/07 11:42:45;;;;;;;13.03;3.93;;;10.50;99.90;;;;;;4988502;28;20557;-73
2023/04/07 11:45:18;;;;;;;9.93;5.13;;;10.40;99.90;;;;;;4979056;28;20579;-73
2023/04/07 11:47:46;;;;;;;14.13;4.53;;;10.40;99.90;;;;;;4990597;28;20477;-73
2023/04/07 11:50:39;;;;;;;14.70;4.80;;;10.50;99.90;;;;;;4987902;28;20461;-72
2023/04/07 11:53:08;;;;;;;17.13;6.17;;;10.50;99.90;;;;;;4972696;28;20495;-72
2023/04/07 11:55:38;;;;;;;16.90;6.37;;;10.50;99.90;;;;;;4983276;28;20785;-73
2023/04/07 11:58:08;;;;;;;15.83;4.37;;;10.50;99.90;;;;;;4984970;28;20549;-73
2023/04/07 12:00:52;;;;;;;23.07;5.57;;;10.50;99.90;;;;;;4981907;28;20809;-73
2023/04/07 12:03:21;;;;;;;13.07;5.30;;;10.50;99.90;;;;;;4983546;28;20450;-74
2023/04/07 12:05:49;;;;;;;13.50;5.60;;;10.50;99.90;;;;;;4985937;28;20529;-75
2023/04/07 12:08:18;;;;;;;9.37;4.60;;;10.50;99.90;;;;;;4991903;28;21038;-74
2023/04/07 12:10:49;;;;;;;9.40;4.80;;;10.50;99.90;;;;;;4975087;28;20836;-73
2023/04/07 12:13:18;;;;;;;16.57;5.17;;;10.50;99.90;;;;;;4978561;28;20444;-73
2023/04/07 12:15:47;;;;;;;11.23;4.83;;;10.50;99.90;;;;;;4985331;28;20881;-73
2023/04/07 12:18:17;;;;;;;9.37;5.10;;;10.50;99.90;;;;;;4985999;28;21044;-72
2023/04/07 12:20:46;;;;;;;14.50;5.23;;;10.50;99.90;;;;;;4976252;28;20469;-72
2023/04/07 12:23:15;;;;;;;12.00;4.80;;;10.50;99.90;;;;;;4981867;28;20477;-74
2023/04/07 12:25:43;;;;;;;12.43;4.40;;;10.50;99.90;;;;;;4984965;28;20482;-66
2023/04/07 12:28:13;;;;;;;15.53;5.67;;;10.50;99.90;;;;;;4986801;28;20954;-65
2023/04/07 12:30:42;;;;;;;9.87;4.63;;;10.50;99.90;;;;;;4994876;28;20476;-65
2023/04/07 12:33:10;;;;;;;11.50;4.57;;;10.50;99.90;;;;;;4980044;28;20442;-66
2023/04/07 12:35:39;;;;;;;13.40;6.03;;;10.50;99.90;;;;;;4984085;28;20443;-66
2023/04/07 12:38:08;;;;;;;13.60;7.47;;;10.50;99.90;;;;;;4986698;28;20461;-66
2023/04/07 12:40:37;;;;;;;23.03;5.17;;;10.60;99.90;;;;;;4982046;28;20463;-65
2023/04/07 12:43:05;;;;;;;9.80;4.97;;;10.60;99.90;;;;;;4980268;28;20464;-66
2023/04/07 12:45:35;;;;;;;11.00;5.83;;;10.60;99.90;;;;;;4986202;28;20478;-66
2023/04/07 12:48:04;;;;;;;10.70;5.47;;;10.50;99.90;;;;;;4981561;28;20444;-66
2023/04/07 12:50:51;;;;;;;8.53;6.90;;;10.50;99.90;;;;;;4962359;28;20907;-65
2023/04/07 12:53:30;;;;;;;8.37;6.30;;;10.60;99.90;;;;;;4980048;28;20431;-64
2023/04/07 12:55:58;;;;;;;7.83;7.03;;;10.70;99.90;;;;;;4977713;28;20592;-73
2023/04/07 12:58:29;;;;;;;9.87;7.87;;;10.70;99.90;;;;;;4973039;28;20452;-64
2023/04/07 13:00:59;;;;;;;11.03;7.63;;;10.80;99.90;;;;;;4978072;28;20445;-65
2023/04/07 13:03:28;;;;;;;9.60;8.30;;;10.80;99.90;;;;;;4979379;28;20457;-65
2023/04/07 13:06:00;;;;;;;11.03;7.47;;;10.80;99.90;;;;;;4979551;28;20492;-64
2023/04/07 13:08:28;;;;;;;12.10;6.90;;;10.80;99.90;;;;;;4977015;28;20480;-65